sensor_id;sensor_type;location;lat;lon;timestamp;P1;durP1;ratioP1;P2;durP2;ratioP2
69565;SDS011;56777;55.930;37.524;2023-12-28T00:02:16;1.70;;;0.85;;
69565;SDS011;56777;55.930;37.524;2023-12-28T00:04:41;5.25;;;1.50;;
69565;SDS011;56777;55.930;37.524;2023-12-28T00:07:07;3.35;;;1.02;;
69565;SDS011;56777;55.930;37.524;2023-12-28T00:09:32;2.40;;;1.15;;
69565;SDS011;56777;55.930;37.524;2023-12-28T00:11:58;2.80;;;1.10;;
69565;SDS011;56777;55.930;37.524;2023-12-28T00:14:24;1.98;;;1.10;;
69565;SDS011;56777;55.930;37.524;2023-12-28T00:16:49;6.32;;;1.02;;
69565;SDS011;56777;55.930;37.524;2023-12-28T00:19:15;1.80;;;0.93;;
69565;SDS011;56777;55.930;37.524;2023-12-28T00:21:40;1.90;;;0.85;;
69565;SDS011;56777;55.930;37.524;2023-12-28T00:24:06;2.70;;;1.10;;
69565;SDS011;56777;55.930;37.524;2023-12-28T00:26:31;2.55;;;1.20;;
69565;SDS011;56777;55.930;37.524;2023-12-28T00:28:57;1.65;;;0.88;;
69565;SDS011;56777;55.930;37.524;2023-12-28T00:31:22;0.98;;;0.70;;
69565;SDS011;56777;55.930;37.524;2023-12-28T00:33:48;2.20;;;0.80;;
69565;SDS011;56777;55.930;37.524;2023-12-28T00:36:15;1.80;;;0.93;;
69565;SDS011;56777;55.930;37.524;2023-12-28T00:38:41;1.50;;;1.05;;
69565;SDS011;56777;55.930;37.524;2023-12-28T00:41:07;1.65;;;0.80;;
69565;SDS011;56777;55.930;37.524;2023-12-28T00:43:32;1.98;;;0.95;;
69565;SDS011;56777;55.930;37.524;2023-12-28T00:45:58;2.20;;;0.77;;
69565;SDS011;56777;55.930;37.524;2023-12-28T00:48:24;1.33;;;0.82;;
69565;SDS011;56777;55.930;37.524;2023-12-28T00:50:49;1.65;;;0.85;;
69565;SDS011;56777;55.930;37.524;2023-12-28T00:53:15;2.47;;;1.17;;
69565;SDS011;56777;55.930;37.524;2023-12-28T00:55:40;3.65;;;1.05;;
69565;SDS011;56777;55.930;37.524;2023-12-28T00:58:06;2.47;;;0.88;;
69565;SDS011;56777;55.930;37.524;2023-12-28T01:00:31;2.80;;;0.90;;
69565;SDS011;56777;55.930;37.524;2023-12-28T01:02:57;1.48;;;1.00;;
69565;SDS011;56777;55.930;37.524;2023-12-28T01:05:23;1.50;;;0.70;;
69565;SDS011;56777;55.930;37.524;2023-12-28T01:07:51;2.08;;;1.17;;
69565;SDS011;56777;55.930;37.524;2023-12-28T01:10:16;2.17;;;1.05;;
69565;SDS011;56777;55.930;37.524;2023-12-28T01:12:42;2.53;;;1.27;;
69565;SDS011;56777;55.930;37.524;2023-12-28T01:15:08;2.65;;;1.08;;
69565;SDS011;56777;55.930;37.524;2023-12-28T01:17:33;1.88;;;1.38;;
69565;SDS011;56777;55.930;37.524;2023-12-28T01:19:59;2.42;;;1.00;;
69565;SDS011;56777;55.930;37.524;2023-12-28T01:22:25;3.00;;;1.30;;
69565;SDS011;56777;55.930;37.524;2023-12-28T01:24:50;3.45;;;1.40;;
69565;SDS011;56777;55.930;37.524;2023-12-28T01:27:16;2.00;;;1.40;;
69565;SDS011;56777;55.930;37.524;2023-12-28T01:29:41;2.58;;;1.40;;
69565;SDS011;56777;55.930;37.524;2023-12-28T01:32:07;1.80;;;1.08;;
69565;SDS011;56777;55.930;37.524;2023-12-28T01:34:32;2.45;;;1.40;;
69565;SDS011;56777;55.930;37.524;2023-12-28T01:36:58;2.88;;;1.23;;
69565;SDS011;56777;55.930;37.524;2023-12-28T01:39:23;2.50;;;1.40;;
69565;SDS011;56777;55.930;37.524;2023-12-28T01:41:49;2.67;;;1.33;;
69565;SDS011;56777;55.930;37.524;2023-12-28T01:44:15;2.17;;;1.10;;
69565;SDS011;56777;55.930;37.524;2023-12-28T01:46:40;1.80;;;0.93;;
69565;SDS011;56777;55.930;37.524;2023-12-28T01:49:06;5.38;;;1.20;;
69565;SDS011;56777;55.930;37.524;2023-12-28T01:51:32;3.50;;;0.80;;
69565;SDS011;56777;55.930;37.524;2023-12-28T01:53:59;4.07;;;1.00;;
69565;SDS011;56777;55.930;37.524;2023-12-28T01:56:25;2.92;;;1.00;;
69565;SDS011;56777;55.930;37.524;2023-12-28T01:58:51;3.75;;;1.23;;
69565;SDS011;56777;55.930;37.524;2023-12-28T02:01:18;2.03;;;1.00;;
69565;SDS011;56777;55.930;37.524;2023-12-28T02:03:45;1.63;;;1.05;;
69565;SDS011;56777;55.930;37.524;2023-12-28T02:06:11;1.85;;;1.05;;
69565;SDS011;56777;55.930;37.524;2023-12-28T02:08:41;1.70;;;1.00;;
69565;SDS011;56777;55.930;37.524;2023-12-28T02:11:07;1.90;;;1.20;;
69565;SDS011;56777;55.930;37.524;2023-12-28T02:13:33;2.28;;;1.23;;
69565;SDS011;56777;55.930;37.524;2023-12-28T02:16:00;1.95;;;0.90;;
69565;SDS011;56777;55.930;37.524;2023-12-28T02:18:43;2.83;;;1.02;;
69565;SDS011;56777;55.930;37.524;2023-12-28T02:21:13;2.67;;;1.00;;
69565;SDS011;56777;55.930;37.524;2023-12-28T02:23:45;1.73;;;1.02;;
69565;SDS011;56777;55.930;37.524;2023-12-28T02:26:12;1.60;;;1.08;;
69565;SDS011;56777;55.930;37.524;2023-12-28T02:28:37;1.52;;;1.13;;
69565;SDS011;56777;55.930;37.524;2023-12-28T02:31:03;1.67;;;1.20;;
69565;SDS011;56777;55.930;37.524;2023-12-28T02:33:36;1.45;;;0.90;;
69565;SDS011;56777;55.930;37.524;2023-12-28T02:36:09;1.75;;;1.05;;
69565;SDS011;56777;55.930;37.524;2023-12-28T02:38:36;3.08;;;1.10;;
69565;SDS011;56777;55.930;37.524;2023-12-28T02:41:04;1.52;;;1.13;;
69565;SDS011;56777;55.930;37.524;2023-12-28T02:43:30;1.75;;;1.00;;
69565;SDS011;56777;55.930;37.524;2023-12-28T02:45:58;1.40;;;1.00;;
69565;SDS011;56777;55.930;37.524;2023-12-28T02:48:23;1.88;;;0.95;;
69565;SDS011;56777;55.930;37.524;2023-12-28T02:50:50;2.05;;;1.00;;
69565;SDS011;56777;55.930;37.524;2023-12-28T02:53:16;1.85;;;1.10;;
69565;SDS011;56777;55.930;37.524;2023-12-28T02:55:42;2.55;;;0.93;;
69565;SDS011;56777;55.930;37.524;2023-12-28T02:58:07;3.08;;;1.02;;
69565;SDS011;56777;55.930;37.524;2023-12-28T03:00:33;1.92;;;0.90;;
69565;SDS011;56777;55.930;37.524;2023-12-28T03:02:58;2.17;;;1.08;;
69565;SDS011;56777;55.930;37.524;2023-12-28T03:05:24;1.38;;;0.80;;
69565;SDS011;56777;55.930;37.524;2023-12-28T03:07:49;4.85;;;1.00;;
69565;SDS011;56777;55.930;37.524;2023-12-28T03:10:15;2.30;;;1.33;;
69565;SDS011;56777;55.930;37.524;2023-12-28T03:12:41;1.83;;;1.08;;
69565;SDS011;56777;55.930;37.524;2023-12-28T03:15:06;1.45;;;1.00;;
69565;SDS011;56777;55.930;37.524;2023-12-28T03:17:32;1.65;;;0.95;;
69565;SDS011;56777;55.930;37.524;2023-12-28T03:19:58;3.67;;;1.10;;
69565;SDS011;56777;55.930;37.524;2023-12-28T03:22:24;2.60;;;1.10;;
69565;SDS011;56777;55.930;37.524;2023-12-28T03:24:50;1.92;;;0.98;;
69565;SDS011;56777;55.930;37.524;2023-12-28T03:27:16;1.90;;;1.02;;
69565;SDS011;56777;55.930;37.524;2023-12-28T03:29:42;0.95;;;0.80;;
69565;SDS011;56777;55.930;37.524;2023-12-28T03:32:08;3.28;;;1.13;;
69565;SDS011;56777;55.930;37.524;2023-12-28T03:34:33;2.45;;;1.10;;
69565;SDS011;56777;55.930;37.524;2023-12-28T03:36:59;2.10;;;1.08;;
69565;SDS011;56777;55.930;37.524;2023-12-28T03:39:25;3.45;;;0.90;;
69565;SDS011;56777;55.930;37.524;2023-12-28T03:41:51;1.52;;;0.90;;
69565;SDS011;56777;55.930;37.524;2023-12-28T03:44:20;1.75;;;1.15;;
69565;SDS011;56777;55.930;37.524;2023-12-28T03:46:49;1.77;;;1.02;;
69565;SDS011;56777;55.930;37.524;2023-12-28T03:49:19;3.00;;;1.20;;
69565;SDS011;56777;55.930;37.524;2023-12-28T03:51:46;2.50;;;1.10;;
69565;SDS011;56777;55.930;37.524;2023-12-28T03:54:15;2.88;;;1.33;;
69565;SDS011;56777;55.930;37.524;2023-12-28T03:56:41;2.75;;;1.30;;
69565;SDS011;56777;55.930;37.524;2023-12-28T03:59:08;3.60;;;1.30;;
69565;SDS011;56777;55.930;37.524;2023-12-28T04:01:34;2.70;;;1.10;;
69565;SDS011;56777;55.930;37.524;2023-12-28T04:04:00;2.05;;;0.98;;
69565;SDS011;56777;55.930;37.524;2023-12-28T04:06:26;2.90;;;1.25;;
69565;SDS011;56777;55.930;37.524;2023-12-28T04:08:51;3.60;;;1.58;;
69565;SDS011;56777;55.930;37.524;2023-12-28T04:11:17;3.85;;;1.15;;
69565;SDS011;56777;55.930;37.524;2023-12-28T04:13:42;3.10;;;1.10;;
69565;SDS011;56777;55.930;37.524;2023-12-28T04:16:11;6.05;;;1.25;;
69565;SDS011;56777;55.930;37.524;2023-12-28T04:18:37;2.10;;;1.10;;
69565;SDS011;56777;55.930;37.524;2023-12-28T04:21:03;4.13;;;1.30;;
69565;SDS011;56777;55.930;37.524;2023-12-28T04:23:30;3.75;;;1.42;;
69565;SDS011;56777;55.930;37.524;2023-12-28T04:25:57;3.45;;;1.20;;
69565;SDS011;56777;55.930;37.524;2023-12-28T04:28:23;1.23;;;0.77;;
69565;SDS011;56777;55.930;37.524;2023-12-28T04:30:49;3.28;;;1.27;;
69565;SDS011;56777;55.930;37.524;2023-12-28T04:33:16;3.53;;;1.15;;
69565;SDS011;56777;55.930;37.524;2023-12-28T04:35:44;3.95;;;1.50;;
69565;SDS011;56777;55.930;37.524;2023-12-28T04:38:09;4.00;;;1.42;;
69565;SDS011;56777;55.930;37.524;2023-12-28T04:40:35;3.08;;;1.20;;
69565;SDS011;56777;55.930;37.524;2023-12-28T04:43:00;2.75;;;0.93;;
69565;SDS011;56777;55.930;37.524;2023-12-28T04:45:26;1.55;;;0.75;;
69565;SDS011;56777;55.930;37.524;2023-12-28T04:47:52;3.50;;;1.00;;
69565;SDS011;56777;55.930;37.524;2023-12-28T04:50:18;3.67;;;1.10;;
69565;SDS011;56777;55.930;37.524;2023-12-28T04:52:43;1.33;;;0.80;;
69565;SDS011;56777;55.930;37.524;2023-12-28T04:55:09;2.53;;;1.23;;
69565;SDS011;56777;55.930;37.524;2023-12-28T04:57:34;2.72;;;1.20;;
69565;SDS011;56777;55.930;37.524;2023-12-28T05:00:00;3.50;;;1.48;;
69565;SDS011;56777;55.930;37.524;2023-12-28T05:02:26;2.92;;;0.98;;
69565;SDS011;56777;55.930;37.524;2023-12-28T05:04:52;3.08;;;0.90;;
69565;SDS011;56777;55.930;37.524;2023-12-28T05:07:17;3.25;;;0.90;;
69565;SDS011;56777;55.930;37.524;2023-12-28T05:09:43;3.28;;;1.38;;
69565;SDS011;56777;55.930;37.524;2023-12-28T05:12:09;3.25;;;1.20;;
69565;SDS011;56777;55.930;37.524;2023-12-28T05:14:34;2.33;;;1.20;;
69565;SDS011;56777;55.930;37.524;2023-12-28T05:17:00;3.75;;;1.10;;
69565;SDS011;56777;55.930;37.524;2023-12-28T05:19:25;2.45;;;1.17;;
69565;SDS011;56777;55.930;37.524;2023-12-28T05:21:51;2.97;;;1.27;;
69565;SDS011;56777;55.930;37.524;2023-12-28T05:24:16;2.70;;;1.17;;
69565;SDS011;56777;55.930;37.524;2023-12-28T05:26:42;3.28;;;1.20;;
69565;SDS011;56777;55.930;37.524;2023-12-28T05:29:07;4.82;;;1.48;;
69565;SDS011;56777;55.930;37.524;2023-12-28T05:31:33;1.95;;;1.30;;
69565;SDS011;56777;55.930;37.524;2023-12-28T05:33:59;3.45;;;1.17;;
69565;SDS011;56777;55.930;37.524;2023-12-28T05:36:24;3.42;;;1.20;;
69565;SDS011;56777;55.930;37.524;2023-12-28T05:38:50;2.20;;;1.13;;
69565;SDS011;56777;55.930;37.524;2023-12-28T05:41:16;3.65;;;1.10;;
69565;SDS011;56777;55.930;37.524;2023-12-28T05:43:41;3.85;;;1.27;;
69565;SDS011;56777;55.930;37.524;2023-12-28T05:46:07;2.55;;;1.10;;
69565;SDS011;56777;55.930;37.524;2023-12-28T05:48:32;2.97;;;1.20;;
69565;SDS011;56777;55.930;37.524;2023-12-28T05:50:58;2.80;;;1.60;;
69565;SDS011;56777;55.930;37.524;2023-12-28T05:53:26;3.80;;;1.27;;
69565;SDS011;56777;55.930;37.524;2023-12-28T05:55:52;3.78;;;1.33;;
69565;SDS011;56777;55.930;37.524;2023-12-28T05:58:18;5.22;;;1.60;;
69565;SDS011;56777;55.930;37.524;2023-12-28T06:00:44;4.03;;;1.40;;
69565;SDS011;56777;55.930;37.524;2023-12-28T06:03:11;2.35;;;1.40;;
69565;SDS011;56777;55.930;37.524;2023-12-28T06:05:37;2.40;;;1.00;;
69565;SDS011;56777;55.930;37.524;2023-12-28T06:08:02;3.70;;;1.20;;
69565;SDS011;56777;55.930;37.524;2023-12-28T06:10:28;4.35;;;1.40;;
69565;SDS011;56777;55.930;37.524;2023-12-28T06:12:54;2.65;;;1.15;;
69565;SDS011;56777;55.930;37.524;2023-12-28T06:15:20;2.78;;;1.15;;
69565;SDS011;56777;55.930;37.524;2023-12-28T06:17:45;2.75;;;1.50;;
69565;SDS011;56777;55.930;37.524;2023-12-28T06:20:11;3.88;;;1.20;;
69565;SDS011;56777;55.930;37.524;2023-12-28T06:22:36;3.42;;;1.23;;
69565;SDS011;56777;55.930;37.524;2023-12-28T06:25:03;4.65;;;1.58;;
69565;SDS011;56777;55.930;37.524;2023-12-28T06:27:29;5.72;;;1.40;;
69565;SDS011;56777;55.930;37.524;2023-12-28T06:29:55;3.63;;;1.63;;
69565;SDS011;56777;55.930;37.524;2023-12-28T06:32:20;4.95;;;1.25;;
69565;SDS011;56777;55.930;37.524;2023-12-28T06:34:46;4.43;;;1.40;;
69565;SDS011;56777;55.930;37.524;2023-12-28T06:37:12;6.53;;;1.40;;
69565;SDS011;56777;55.930;37.524;2023-12-28T06:39:38;6.03;;;1.15;;
69565;SDS011;56777;55.930;37.524;2023-12-28T06:42:04;4.30;;;1.48;;
69565;SDS011;56777;55.930;37.524;2023-12-28T06:44:30;4.55;;;1.40;;
69565;SDS011;56777;55.930;37.524;2023-12-28T06:46:55;3.88;;;1.20;;
69565;SDS011;56777;55.930;37.524;2023-12-28T06:49:21;6.55;;;1.35;;
69565;SDS011;56777;55.930;37.524;2023-12-28T06:51:46;2.72;;;1.23;;
69565;SDS011;56777;55.930;37.524;2023-12-28T06:54:13;4.40;;;1.15;;
69565;SDS011;56777;55.930;37.524;2023-12-28T06:56:38;3.60;;;1.25;;
69565;SDS011;56777;55.930;37.524;2023-12-28T06:59:04;4.63;;;1.60;;
69565;SDS011;56777;55.930;37.524;2023-12-28T07:01:29;3.22;;;1.15;;
69565;SDS011;56777;55.930;37.524;2023-12-28T07:03:55;3.15;;;1.05;;
69565;SDS011;56777;55.930;37.524;2023-12-28T07:06:20;4.15;;;1.35;;
69565;SDS011;56777;55.930;37.524;2023-12-28T07:08:46;2.63;;;1.20;;
69565;SDS011;56777;55.930;37.524;2023-12-28T07:11:11;3.70;;;1.25;;
69565;SDS011;56777;55.930;37.524;2023-12-28T07:13:37;3.33;;;1.02;;
69565;SDS011;56777;55.930;37.524;2023-12-28T07:16:03;6.53;;;1.45;;
69565;SDS011;56777;55.930;37.524;2023-12-28T07:18:29;3.13;;;0.80;;
69565;SDS011;56777;55.930;37.524;2023-12-28T07:20:55;2.90;;;1.10;;
69565;SDS011;56777;55.930;37.524;2023-12-28T07:23:20;4.13;;;1.33;;
69565;SDS011;56777;55.930;37.524;2023-12-28T07:25:46;2.63;;;1.60;;
69565;SDS011;56777;55.930;37.524;2023-12-28T07:28:11;4.97;;;1.38;;
69565;SDS011;56777;55.930;37.524;2023-12-28T07:30:37;4.20;;;1.52;;
69565;SDS011;56777;55.930;37.524;2023-12-28T07:33:03;5.68;;;1.30;;
69565;SDS011;56777;55.930;37.524;2023-12-28T07:35:29;4.30;;;1.40;;
69565;SDS011;56777;55.930;37.524;2023-12-28T07:37:55;3.45;;;1.38;;
69565;SDS011;56777;55.930;37.524;2023-12-28T07:40:20;3.03;;;1.13;;
69565;SDS011;56777;55.930;37.524;2023-12-28T07:42:46;5.47;;;1.20;;
69565;SDS011;56777;55.930;37.524;2023-12-28T07:45:12;8.20;;;1.35;;
69565;SDS011;56777;55.930;37.524;2023-12-28T07:47:37;2.42;;;1.20;;
69565;SDS011;56777;55.930;37.524;2023-12-28T07:50:03;3.90;;;1.17;;
69565;SDS011;56777;55.930;37.524;2023-12-28T07:52:29;7.20;;;1.40;;
69565;SDS011;56777;55.930;37.524;2023-12-28T07:54:56;5.75;;;1.55;;
69565;SDS011;56777;55.930;37.524;2023-12-28T07:57:23;4.32;;;1.10;;
69565;SDS011;56777;55.930;37.524;2023-12-28T07:59:49;8.23;;;1.05;;
69565;SDS011;56777;55.930;37.524;2023-12-28T08:02:14;3.75;;;1.20;;
69565;SDS011;56777;55.930;37.524;2023-12-28T08:04:40;2.42;;;0.95;;
69565;SDS011;56777;55.930;37.524;2023-12-28T08:07:05;2.47;;;0.80;;
69565;SDS011;56777;55.930;37.524;2023-12-28T08:09:32;3.22;;;1.20;;
69565;SDS011;56777;55.930;37.524;2023-12-28T08:11:57;4.72;;;1.00;;
69565;SDS011;56777;55.930;37.524;2023-12-28T08:14:23;1.98;;;1.15;;
69565;SDS011;56777;55.930;37.524;2023-12-28T08:16:49;3.88;;;1.40;;
69565;SDS011;56777;55.930;37.524;2023-12-28T08:19:14;1.98;;;1.10;;
69565;SDS011;56777;55.930;37.524;2023-12-28T08:21:40;4.20;;;1.30;;
69565;SDS011;56777;55.930;37.524;2023-12-28T08:24:05;4.03;;;1.23;;
69565;SDS011;56777;55.930;37.524;2023-12-28T08:26:31;3.90;;;1.23;;
69565;SDS011;56777;55.930;37.524;2023-12-28T08:28:58;3.75;;;1.30;;
69565;SDS011;56777;55.930;37.524;2023-12-28T08:31:24;2.92;;;1.23;;
69565;SDS011;56777;55.930;37.524;2023-12-28T08:33:49;4.72;;;1.20;;
69565;SDS011;56777;55.930;37.524;2023-12-28T08:36:15;3.75;;;1.10;;
69565;SDS011;56777;55.930;37.524;2023-12-28T08:38:42;4.28;;;1.40;;
69565;SDS011;56777;55.930;37.524;2023-12-28T08:41:17;2.80;;;1.55;;
69565;SDS011;56777;55.930;37.524;2023-12-28T08:43:44;3.75;;;1.23;;
69565;SDS011;56777;55.930;37.524;2023-12-28T08:46:09;3.17;;;1.30;;
69565;SDS011;56777;55.930;37.524;2023-12-28T08:48:35;1.88;;;1.10;;
69565;SDS011;56777;55.930;37.524;2023-12-28T08:51:00;3.30;;;1.40;;
69565;SDS011;56777;55.930;37.524;2023-12-28T08:53:26;3.33;;;1.60;;
69565;SDS011;56777;55.930;37.524;2023-12-28T08:55:51;2.45;;;1.23;;
69565;SDS011;56777;55.930;37.524;2023-12-28T08:58:17;4.95;;;1.25;;
69565;SDS011;56777;55.930;37.524;2023-12-28T09:00:43;3.95;;;1.20;;
69565;SDS011;56777;55.930;37.524;2023-12-28T09:03:10;2.50;;;1.27;;
69565;SDS011;56777;55.930;37.524;2023-12-28T09:05:36;3.22;;;1.17;;
69565;SDS011;56777;55.930;37.524;2023-12-28T09:08:02;3.28;;;1.08;;
69565;SDS011;56777;55.930;37.524;2023-12-28T09:10:28;5.60;;;1.70;;
69565;SDS011;56777;55.930;37.524;2023-12-28T09:12:53;4.65;;;1.90;;
69565;SDS011;56777;55.930;37.524;2023-12-28T09:15:19;5.38;;;1.77;;
69565;SDS011;56777;55.930;37.524;2023-12-28T09:17:44;4.35;;;1.30;;
69565;SDS011;56777;55.930;37.524;2023-12-28T09:20:10;3.83;;;1.35;;
69565;SDS011;56777;55.930;37.524;2023-12-28T09:22:37;3.28;;;1.13;;
69565;SDS011;56777;55.930;37.524;2023-12-28T09:25:02;4.47;;;1.75;;
69565;SDS011;56777;55.930;37.524;2023-12-28T09:27:29;6.32;;;2.00;;
69565;SDS011;56777;55.930;37.524;2023-12-28T09:29:54;6.03;;;1.60;;
69565;SDS011;56777;55.930;37.524;2023-12-28T09:32:20;3.15;;;1.40;;
69565;SDS011;56777;55.930;37.524;2023-12-28T09:34:45;3.60;;;1.85;;
69565;SDS011;56777;55.930;37.524;2023-12-28T09:37:11;4.57;;;1.30;;
69565;SDS011;56777;55.930;37.524;2023-12-28T09:39:36;3.33;;;1.38;;
69565;SDS011;56777;55.930;37.524;2023-12-28T09:42:06;4.13;;;1.60;;
69565;SDS011;56777;55.930;37.524;2023-12-28T09:44:40;2.95;;;1.30;;
69565;SDS011;56777;55.930;37.524;2023-12-28T09:47:09;6.47;;;1.52;;
69565;SDS011;56777;55.930;37.524;2023-12-28T09:49:37;4.43;;;1.73;;
69565;SDS011;56777;55.930;37.524;2023-12-28T09:52:06;3.28;;;1.23;;
69565;SDS011;56777;55.930;37.524;2023-12-28T09:54:32;6.20;;;1.58;;
69565;SDS011;56777;55.930;37.524;2023-12-28T09:56:57;3.58;;;1.65;;
69565;SDS011;56777;55.930;37.524;2023-12-28T09:59:23;4.07;;;1.30;;
69565;SDS011;56777;55.930;37.524;2023-12-28T10:01:49;2.33;;;1.38;;
69565;SDS011;56777;55.930;37.524;2023-12-28T10:04:15;5.25;;;1.52;;
69565;SDS011;56777;55.930;37.524;2023-12-28T10:06:41;4.95;;;1.88;;
69565;SDS011;56777;55.930;37.524;2023-12-28T10:09:07;4.47;;;1.30;;
69565;SDS011;56777;55.930;37.524;2023-12-28T10:11:33;4.03;;;1.67;;
69565;SDS011;56777;55.930;37.524;2023-12-28T10:13:59;3.40;;;1.95;;
69565;SDS011;56777;55.930;37.524;2023-12-28T10:16:24;5.53;;;1.98;;
69565;SDS011;56777;55.930;37.524;2023-12-28T10:18:51;5.05;;;1.70;;
69565;SDS011;56777;55.930;37.524;2023-12-28T10:21:16;4.07;;;1.73;;
69565;SDS011;56777;55.930;37.524;2023-12-28T10:23:43;4.10;;;1.92;;
69565;SDS011;56777;55.930;37.524;2023-12-28T10:26:10;4.07;;;1.88;;
69565;SDS011;56777;55.930;37.524;2023-12-28T10:28:36;5.53;;;1.60;;
69565;SDS011;56777;55.930;37.524;2023-12-28T10:31:05;4.28;;;1.73;;
69565;SDS011;56777;55.930;37.524;2023-12-28T10:33:34;7.82;;;2.17;;
69565;SDS011;56777;55.930;37.524;2023-12-28T10:36:00;5.07;;;1.65;;
69565;SDS011;56777;55.930;37.524;2023-12-28T10:38:35;4.18;;;2.00;;
69565;SDS011;56777;55.930;37.524;2023-12-28T10:41:03;3.67;;;1.80;;
69565;SDS011;56777;55.930;37.524;2023-12-28T10:46:02;6.22;;;2.33;;
69565;SDS011;56777;55.930;37.524;2023-12-28T10:48:30;4.15;;;1.40;;
69565;SDS011;56777;55.930;37.524;2023-12-28T10:51:02;4.55;;;1.63;;
69565;SDS011;56777;55.930;37.524;2023-12-28T11:01:54;6.38;;;2.00;;
69565;SDS011;56777;55.930;37.524;2023-12-28T11:07:14;4.18;;;2.03;;
69565;SDS011;56777;55.930;37.524;2023-12-28T11:09:42;3.50;;;1.58;;
69565;SDS011;56777;55.930;37.524;2023-12-28T11:12:08;4.13;;;1.70;;
69565;SDS011;56777;55.930;37.524;2023-12-28T11:14:35;4.97;;;1.55;;
69565;SDS011;56777;55.930;37.524;2023-12-28T11:17:04;5.18;;;1.35;;
69565;SDS011;56777;55.930;37.524;2023-12-28T11:19:30;3.92;;;1.70;;
69565;SDS011;56777;55.930;37.524;2023-12-28T11:21:58;4.97;;;1.77;;
69565;SDS011;56777;55.930;37.524;2023-12-28T11:24:27;3.28;;;1.60;;
69565;SDS011;56777;55.930;37.524;2023-12-28T11:26:54;4.93;;;2.05;;
69565;SDS011;56777;55.930;37.524;2023-12-28T11:29:20;4.80;;;2.03;;
69565;SDS011;56777;55.930;37.524;2023-12-28T11:31:54;6.40;;;2.30;;
69565;SDS011;56777;55.930;37.524;2023-12-28T11:34:26;5.30;;;2.10;;
69565;SDS011;56777;55.930;37.524;2023-12-28T11:36:54;9.10;;;2.13;;
69565;SDS011;56777;55.930;37.524;2023-12-28T11:39:27;6.88;;;2.30;;
69565;SDS011;56777;55.930;37.524;2023-12-28T11:44:37;5.32;;;1.90;;
69565;SDS011;56777;55.930;37.524;2023-12-28T11:47:12;4.07;;;1.85;;
69565;SDS011;56777;55.930;37.524;2023-12-28T11:49:41;9.73;;;2.40;;
69565;SDS011;56777;55.930;37.524;2023-12-28T11:52:09;3.85;;;1.88;;
69565;SDS011;56777;55.930;37.524;2023-12-28T11:54:36;8.02;;;2.53;;
69565;SDS011;56777;55.930;37.524;2023-12-28T11:57:02;8.25;;;2.33;;
69565;SDS011;56777;55.930;37.524;2023-12-28T11:59:27;3.25;;;1.65;;
69565;SDS011;56777;55.930;37.524;2023-12-28T12:01:53;7.75;;;2.25;;
69565;SDS011;56777;55.930;37.524;2023-12-28T12:04:20;5.55;;;2.13;;
69565;SDS011;56777;55.930;37.524;2023-12-28T12:06:46;4.00;;;1.75;;
69565;SDS011;56777;55.930;37.524;2023-12-28T12:09:13;6.10;;;2.38;;
69565;SDS011;56777;55.930;37.524;2023-12-28T12:11:39;6.45;;;2.28;;
69565;SDS011;56777;55.930;37.524;2023-12-28T12:14:11;8.02;;;2.10;;
69565;SDS011;56777;55.930;37.524;2023-12-28T12:16:37;6.03;;;1.75;;
69565;SDS011;56777;55.930;37.524;2023-12-28T12:19:04;4.13;;;1.85;;
69565;SDS011;56777;55.930;37.524;2023-12-28T12:21:30;6.53;;;2.05;;
69565;SDS011;56777;55.930;37.524;2023-12-28T12:23:56;5.70;;;2.33;;
69565;SDS011;56777;55.930;37.524;2023-12-28T12:26:21;6.40;;;2.50;;
69565;SDS011;56777;55.930;37.524;2023-12-28T12:28:47;4.57;;;2.13;;
69565;SDS011;56777;55.930;37.524;2023-12-28T12:31:13;8.98;;;2.15;;
69565;SDS011;56777;55.930;37.524;2023-12-28T12:33:40;4.72;;;1.73;;
69565;SDS011;56777;55.930;37.524;2023-12-28T12:36:07;6.10;;;1.92;;
69565;SDS011;56777;55.930;37.524;2023-12-28T12:38:33;6.07;;;1.80;;
69565;SDS011;56777;55.930;37.524;2023-12-28T12:40:59;5.32;;;2.15;;
69565;SDS011;56777;55.930;37.524;2023-12-28T12:43:24;6.72;;;2.22;;
69565;SDS011;56777;55.930;37.524;2023-12-28T12:45:51;7.72;;;2.72;;
69565;SDS011;56777;55.930;37.524;2023-12-28T12:48:17;7.55;;;2.20;;
69565;SDS011;56777;55.930;37.524;2023-12-28T12:50:43;5.03;;;2.00;;
69565;SDS011;56777;55.930;37.524;2023-12-28T12:53:09;5.10;;;2.00;;
69565;SDS011;56777;55.930;37.524;2023-12-28T12:55:36;5.38;;;2.20;;
69565;SDS011;56777;55.930;37.524;2023-12-28T12:58:04;4.40;;;1.70;;
69565;SDS011;56777;55.930;37.524;2023-12-28T13:00:30;6.25;;;1.98;;
69565;SDS011;56777;55.930;37.524;2023-12-28T13:02:58;7.05;;;1.80;;
69565;SDS011;56777;55.930;37.524;2023-12-28T13:05:28;5.03;;;2.25;;
69565;SDS011;56777;55.930;37.524;2023-12-28T13:07:54;5.43;;;1.77;;
69565;SDS011;56777;55.930;37.524;2023-12-28T13:10:20;5.32;;;1.58;;
69565;SDS011;56777;55.930;37.524;2023-12-28T13:12:46;4.68;;;1.90;;
69565;SDS011;56777;55.930;37.524;2023-12-28T13:15:12;4.55;;;1.58;;
69565;SDS011;56777;55.930;37.524;2023-12-28T13:17:37;8.20;;;1.88;;
69565;SDS011;56777;55.930;37.524;2023-12-28T13:20:06;4.88;;;1.70;;
69565;SDS011;56777;55.930;37.524;2023-12-28T13:22:32;5.35;;;1.63;;
69565;SDS011;56777;55.930;37.524;2023-12-28T13:24:59;4.35;;;1.95;;
69565;SDS011;56777;55.930;37.524;2023-12-28T13:27:24;4.38;;;1.73;;
69565;SDS011;56777;55.930;37.524;2023-12-28T13:29:50;5.40;;;2.17;;
69565;SDS011;56777;55.930;37.524;2023-12-28T13:32:15;7.53;;;1.88;;
69565;SDS011;56777;55.930;37.524;2023-12-28T13:34:41;5.28;;;1.73;;
69565;SDS011;56777;55.930;37.524;2023-12-28T13:37:06;3.22;;;1.30;;
69565;SDS011;56777;55.930;37.524;2023-12-28T13:39:32;5.47;;;1.48;;
69565;SDS011;56777;55.930;37.524;2023-12-28T13:42:04;5.05;;;2.00;;
69565;SDS011;56777;55.930;37.524;2023-12-28T13:44:32;7.47;;;1.70;;
69565;SDS011;56777;55.930;37.524;2023-12-28T13:47:01;6.63;;;1.83;;
69565;SDS011;56777;55.930;37.524;2023-12-28T13:49:27;3.33;;;1.55;;
69565;SDS011;56777;55.930;37.524;2023-12-28T13:51:52;5.78;;;2.03;;
69565;SDS011;56777;55.930;37.524;2023-12-28T13:54:18;6.20;;;1.80;;
69565;SDS011;56777;55.930;37.524;2023-12-28T13:56:47;6.03;;;1.90;;
69565;SDS011;56777;55.930;37.524;2023-12-28T13:59:13;5.82;;;1.67;;
69565;SDS011;56777;55.930;37.524;2023-12-28T14:01:39;3.88;;;1.33;;
69565;SDS011;56777;55.930;37.524;2023-12-28T14:04:05;3.55;;;1.50;;
69565;SDS011;56777;55.930;37.524;2023-12-28T14:06:31;4.78;;;1.52;;
69565;SDS011;56777;55.930;37.524;2023-12-28T14:08:56;4.22;;;1.42;;
69565;SDS011;56777;55.930;37.524;2023-12-28T14:11:23;7.00;;;2.08;;
69565;SDS011;56777;55.930;37.524;2023-12-28T14:13:49;5.90;;;1.90;;
69565;SDS011;56777;55.930;37.524;2023-12-28T14:16:14;8.32;;;2.17;;
69565;SDS011;56777;55.930;37.524;2023-12-28T14:18:40;5.47;;;1.65;;
69565;SDS011;56777;55.930;37.524;2023-12-28T14:21:07;6.60;;;2.22;;
69565;SDS011;56777;55.930;37.524;2023-12-28T14:23:37;7.22;;;1.75;;
69565;SDS011;56777;55.930;37.524;2023-12-28T14:26:04;7.55;;;2.10;;
69565;SDS011;56777;55.930;37.524;2023-12-28T14:28:40;4.75;;;1.75;;
69565;SDS011;56777;55.930;37.524;2023-12-28T14:31:07;4.63;;;1.85;;
69565;SDS011;56777;55.930;37.524;2023-12-28T14:33:37;8.23;;;1.85;;
69565;SDS011;56777;55.930;37.524;2023-12-28T14:38:44;9.02;;;2.35;;
69565;SDS011;56777;55.930;37.524;2023-12-28T14:41:10;6.65;;;2.20;;
69565;SDS011;56777;55.930;37.524;2023-12-28T14:43:35;6.15;;;2.00;;
69565;SDS011;56777;55.930;37.524;2023-12-28T14:46:01;5.95;;;1.80;;
69565;SDS011;56777;55.930;37.524;2023-12-28T14:48:26;7.63;;;2.20;;